< < Back
Terminal Aerodrome Forecast


Current Version              Previous Versions:   1  2  3  4  5  6  7  8  9  

Terminal Aerodrome Forecast

391
FTUS42 KGSP 182339
TAFHKY
TAF
KHKY 182339Z 1900/1924 22003KT P6SM BKN060
     FM190300 33003KT P6SM SCT070 SCT200
     FM191800 VRB03KT P6SM SCT200=



Latest METAR

934
SAUS70 KWBC 190200 RRI
MTRHKY
METAR KHKY 190153Z AUTO 02004KT 10SM BKN050 OVC070 06/M02 A3008 RMK AO2
SLP180 T00611017


USA.gov is the U.S. government's official web portal to all federal, state and local government web resources and services.